Hauptseite
METAR-TAF:

METAR-TAF

Flughäfen :

Cardiff, Wales

Cardiff Airport

Breite: 51-24N, Länge: 003-21W, Höhe: 67 m

Beobachtung

Neuester Wetterbericht von vor 24 Minuten, um 18:50 UTC
Wind 14 kt aus Ost
Temperatur 3°C
Luftfeuchtigkeit 60%
Luftdruck 1027 hPa
Sichtweite 10 km oder mehr

METAR: EGFF 251850Z AUTO 08014KT 9999 NCD 03/M04 Q1027

Zeit: 19:14 (19:14 UTC)

Prognose

Neuester Wetterbericht von vor 2 Stunden und 14 Minuten, um 17:00 UTC
Gültige Prognose vom 25 um 18 UTC bis 26 um 18 UTC
Wind 14 kt aus Ost
Sichtweite 10 km oder mehr
Leicht bewölkt in der Höhe von 4500 ft
Wahrscheinlichkeit 30% :
Zeitweise
vom 25 um 18 UTC bis 26 um 18 UTC
Wind 17 kt aus Ost, Böen bis zu 27 kt

TAF: EGFF 251700Z 2518/2618 08014KT 9999 FEW045 PROB30 TEMPO 2518/2618 09017G27KT

Wetterbeobachtungen und Prognosen von mehr als 4000 Flughäfen (METAR und TAF Bericht).

Die verfügbaren Stationen werden durch gelbe und rote Markierungen auf der Karte dargestellt.

Führen Sie die Maus auf sie, um den Namen der Station zu sehen.

Darauf klicken, um die Beobachtung von Wetterbeobachtungen und Prognosen zu sehen.

Um die Karte zu ändern : klicken Sie auf den grünen Tasten mit einem schwarzen Kreuz Zum Vergrößern, auf den grünen Button mit einem Gedankenstrich zu verkleinern, oder auf die grünen Pfeile für benachbarte Karten.


METAR-TAF: